Station: EBLB - 16/08/2022 19:25Z (il y a 20 minutes)
EBLB 161925Z AUTO VRB01KT 9999 FEW075/// 18/14 Q1012 BLU
Vent de direction variable: 1 kt
Visibilité > 10 km
Nuages épars à 7500 pieds
Température: +18ºC - Point de rosée: +14ºC - QNH: 1012 hPa
Code couleur militaire: BLU (conditions VMC)